Airfield :







YOU CAN JOIN US ON...

 
LOGIN :

Register | Disclaimer

   EN    FR    IT 

 









Legend :    VFR   Marginal VFR   IFR   Intensive IFR   Very Intensive IFR
Visi :
Ceiling :
>= 8 km
>= 3000ft
5 to 8 km
1000 to 3000 ft
1500m to 5 km
500 to 1000 ft
800 to 1500m
200 to 500 ft
< 800m
< 200 ft
Symbols :   Thunderstorms  Fog  Heavy snow  Heavy precipitations  Wind > 20 kt






- Airport Elevation : 98 ft
- IATA code : JBQ


MDJB - El Higuero

EXPIRED METARs :
  • 180300Z 00000KT 9999 FEW018 BKN300 25/25 Q1013
  • 180200Z 00000KT 9999 FEW016CB SCT018 BKN300 27/25 Q1013 CB/N

TAF TAF MDJB
Valid from the 18 at 06:00 until the 19 at 06:00 UTC


180400Z 1806/1906 00000KT 9999 SCT018 BKN300
PROB30 1804/1810 7000 -TSRA FEW014CB BKN016 SCT070 BKN300
BECMG 1816/1818 18010KT
MDCS FIR / North America



MET'MAP, your aeronautical weather chart ! - Copyright ORBIFLY December 2007 - Disclaimer

ORBIFLY MET'MAP TEAM :

Programming & Development : Alexandra Zaïnal
Original concept : Baudouin d'Aumeries
Technical & hardware support : Manuel Goepfert
Assistance : Marc-Olivier Méhu




SOURCES & CREDITS :

   NOAA